Time;durP1;ratioP1;P1;durP2;ratioP2;P2;SDS_P1;SDS_P2;PMS_P1;PMS_P2;Temp;Humidity;BMP_temperature;BMP_pressure;BME280_temperature;BME280_humidity;BME280_pressure;Samples;Min_cycle;Max_cycle;Signal;HPM_P1;HPM_P2
2021/11/11 00:02:18;;;;;;;72.22;36.83;;;;;;;;;;5015270;28;20046;-87
2021/11/11 00:04:44;;;;;;;77.32;40.10;;;;;;;;;;5016262;28;20128;-87
2021/11/11 00:07:11;;;;;;;73.60;36.15;;;;;;;;;;4999967;28;20366;-86
2021/11/11 00:09:37;;;;;;;77.43;37.33;;;;;;;;;;5019456;28;20103;-86
2021/11/11 00:12:03;;;;;;;76.25;37.78;;;;;;;;;;5030766;28;20053;-87
2021/11/11 00:14:29;;;;;;;74.07;36.00;;;;;;;;;;4999624;28;20128;-87
2021/11/11 00:16:56;;;;;;;73.70;35.78;;;;;;;;;;4999712;28;20531;-87
2021/11/11 00:19:22;;;;;;;73.05;36.03;;;;;;;;;;5016067;28;20084;-87
2021/11/11 00:21:49;;;;;;;84.28;39.22;;;;;;;;;;4999555;28;20076;-87
2021/11/11 00:24:15;;;;;;;81.47;37.42;;;;;;;;;;5013652;28;20049;-89
2021/11/11 00:26:42;;;;;;;74.35;38.15;;;;;;;;;;5016002;28;20240;-86
2021/11/11 00:29:09;;;;;;;83.93;38.90;;;;;;;;;;5006635;28;20049;-87
2021/11/11 00:31:35;;;;;;;82.40;38.35;;;;;;;;;;5022703;28;20045;-86
2021/11/11 00:34:01;;;;;;;78.60;39.30;;;;;;;;;;4999683;28;20071;-86
2021/11/11 00:36:27;;;;;;;78.15;37.70;;;;;;;;;;5014676;28;20095;-89
2021/11/11 00:38:53;;;;;;;83.05;38.58;;;;;;;;;;4996393;28;20493;-87
2021/11/11 00:41:19;;;;;;;80.72;38.10;;;;;;;;;;5004192;28;20045;-87
2021/11/11 00:43:45;;;;;;;72.65;36.03;;;;;;;;;;5010035;28;20526;-87
2021/11/11 00:46:11;;;;;;;69.90;34.67;;;;;;;;;;4999493;28;20048;-87
2021/11/11 00:48:37;;;;;;;71.53;35.13;;;;;;;;;;4998819;28;20137;-87
2021/11/11 00:51:04;;;;;;;82.35;38.38;;;;;;;;;;4999212;28;20057;-87
2021/11/11 00:53:30;;;;;;;79.45;36.80;;;;;;;;;;5014581;28;20092;-87
2021/11/11 00:55:56;;;;;;;74.93;37.10;;;;;;;;;;4998956;28;20049;-88
2021/11/11 00:58:22;;;;;;;73.82;35.10;;;;;;;;;;5014604;28;20049;-87
2021/11/11 01:00:48;;;;;;;65.93;35.65;;;;;;;;;;4998717;28;20390;-87
2021/11/11 01:03:16;;;;;;;71.72;35.80;;;;;;;;;;4998958;28;20080;-87
2021/11/11 01:05:42;;;;;;;68.70;33.28;;;;;;;;;;4999160;28;20048;-87
2021/11/11 01:08:08;;;;;;;68.78;32.92;;;;;;;;;;4996247;28;20045;-87
2021/11/11 01:10:35;;;;;;;68.45;33.00;;;;;;;;;;5012740;28;20041;-87
2021/11/11 01:13:01;;;;;;;71.03;34.08;;;;;;;;;;4998639;28;20055;-87
2021/11/11 01:15:29;;;;;;;66.68;32.47;;;;;;;;;;5014702;28;20041;-87
2021/11/11 01:17:55;;;;;;;64.70;32.65;;;;;;;;;;5014923;28;20045;-87
2021/11/11 01:20:22;;;;;;;68.18;33.17;;;;;;;;;;4998264;28;20053;-87
2021/11/11 01:22:49;;;;;;;62.47;30.08;;;;;;;;;;4998252;28;20069;-86
2021/11/11 01:25:16;;;;;;;58.33;30.55;;;;;;;;;;5014539;28;20057;-88
2021/11/11 01:27:43;;;;;;;57.92;28.38;;;;;;;;;;5014717;28;20037;-86
2021/11/11 01:30:09;;;;;;;58.67;29.50;;;;;;;;;;5014762;28;20049;-86
2021/11/11 01:32:35;;;;;;;61.53;30.67;;;;;;;;;;5013886;28;20644;-87
2021/11/11 01:35:02;;;;;;;63.72;31.33;;;;;;;;;;5014644;28;20045;-87
2021/11/11 01:37:29;;;;;;;74.95;32.08;;;;;;;;;;5013895;28;20374;-87
2021/11/11 01:39:55;;;;;;;66.07;32.50;;;;;;;;;;5013644;28;20094;-87
2021/11/11 01:42:21;;;;;;;61.50;31.67;;;;;;;;;;5014298;28;20057;-87
2021/11/11 01:44:51;;;;;;;61.88;30.83;;;;;;;;;;4998266;28;20048;-87
2021/11/11 01:47:18;;;;;;;66.30;31.52;;;;;;;;;;5003484;28;20127;-87
2021/11/11 01:49:44;;;;;;;58.15;30.33;;;;;;;;;;4997728;28;20549;-87
2021/11/11 01:52:12;;;;;;;71.43;32.75;;;;;;;;;;5023324;28;20053;-87
2021/11/11 01:54:38;;;;;;;64.13;31.98;;;;;;;;;;4997548;28;20157;-87
2021/11/11 01:57:04;;;;;;;61.10;32.30;;;;;;;;;;4998201;28;20067;-87
2021/11/11 01:59:31;;;;;;;67.00;34.40;;;;;;;;;;5001303;28;20049;-86
2021/11/11 02:01:57;;;;;;;75.43;36.17;;;;;;;;;;5014136;28;20065;-87
2021/11/11 02:04:23;;;;;;;64.30;31.45;;;;;;;;;;4997255;28;20050;-86
2021/11/11 02:06:52;;;;;;;63.80;32.78;;;;;;;;;;4998124;28;20492;-86
2021/11/11 02:09:19;;;;;;;71.13;32.53;;;;;;;;;;5013449;28;20091;-90
2021/11/11 02:11:47;;;;;;;66.35;33.80;;;;;;;;;;5013725;28;20049;-87
2021/11/11 02:14:14;;;;;;;60.63;30.83;;;;;;;;;;4991921;28;20050;-88
2021/11/11 02:16:41;;;;;;;64.13;31.42;;;;;;;;;;5012786;28;20049;-87
2021/11/11 02:19:08;;;;;;;68.50;32.65;;;;;;;;;;4997737;28;20051;-88
2021/11/11 02:21:37;;;;;;;63.92;32.95;;;;;;;;;;5021841;28;20052;-88
2021/11/11 02:24:03;;;;;;;67.05;33.30;;;;;;;;;;4997297;28;20045;-86
2021/11/11 02:26:30;;;;;;;73.75;33.25;;;;;;;;;;5013386;28;20046;-87
2021/11/11 02:28:57;;;;;;;64.55;31.75;;;;;;;;;;5014081;28;20077;-88
2021/11/11 02:31:24;;;;;;;57.80;31.10;;;;;;;;;;5013383;28;20046;-87
2021/11/11 02:33:57;;;;;;;59.92;30.88;;;;;;;;;;4997294;28;20045;-86
2021/11/11 02:36:23;;;;;;;58.60;31.52;;;;;;;;;;4996766;28;20037;-87
2021/11/11 02:38:49;;;;;;;53.33;27.17;;;;;;;;;;4993321;28;20048;-87
2021/11/11 02:41:17;;;;;;;59.50;30.38;;;;;;;;;;4999376;28;20045;-86
2021/11/11 02:43:44;;;;;;;64.07;31.98;;;;;;;;;;4997426;28;20057;-87
2021/11/11 02:46:10;;;;;;;57.83;29.40;;;;;;;;;;4997448;28;20046;-87
2021/11/11 02:48:37;;;;;;;59.50;29.40;;;;;;;;;;4997147;28;20045;-86
2021/11/11 02:51:03;;;;;;;65.90;31.70;;;;;;;;;;5013723;28;20056;-86
2021/11/11 02:53:29;;;;;;;61.70;30.60;;;;;;;;;;4996008;28;20053;-86
2021/11/11 02:55:56;;;;;;;59.97;29.42;;;;;;;;;;5012704;28;20112;-86
2021/11/11 02:58:23;;;;;;;61.03;30.25;;;;;;;;;;4996301;28;20670;-86
2021/11/11 03:00:52;;;;;;;63.45;30.48;;;;;;;;;;4997670;28;20057;-87
2021/11/11 03:03:18;;;;;;;64.13;29.33;;;;;;;;;;4996856;28;20103;-89
2021/11/11 03:05:45;;;;;;;71.82;31.15;;;;;;;;;;4997278;28;20041;-86
2021/11/11 03:08:11;;;;;;;58.75;27.20;;;;;;;;;;5013558;28;20053;-87
2021/11/11 03:10:39;;;;;;;62.53;30.83;;;;;;;;;;4982208;28;20049;-87
2021/11/11 03:13:05;;;;;;;68.45;30.00;;;;;;;;;;5007712;28;20045;-86
2021/11/11 03:15:33;;;;;;;62.85;29.48;;;;;;;;;;4987165;28;20149;-87
2021/11/11 03:17:59;;;;;;;70.95;30.38;;;;;;;;;;5006634;28;20482;-87
2021/11/11 03:20:26;;;;;;;66.78;29.65;;;;;;;;;;4996433;28;20084;-87
2021/11/11 03:22:52;;;;;;;61.10;27.80;;;;;;;;;;5001168;28;20132;-87
2021/11/11 03:25:20;;;;;;;64.32;30.65;;;;;;;;;;5004830;28;20046;-89
2021/11/11 03:27:46;;;;;;;69.25;30.15;;;;;;;;;;4997166;28;20495;-86
2021/11/11 03:30:14;;;;;;;60.45;28.98;;;;;;;;;;5014219;28;20050;-86
2021/11/11 03:32:41;;;;;;;54.90;27.58;;;;;;;;;;5017460;28;20464;-86
2021/11/11 03:35:08;;;;;;;61.53;29.90;;;;;;;;;;5000042;28;20041;-86
2021/11/11 03:37:34;;;;;;;59.90;30.27;;;;;;;;;;5002701;28;20409;-86
2021/11/11 03:40:01;;;;;;;59.30;27.80;;;;;;;;;;4999067;28;20042;-86
2021/11/11 03:42:27;;;;;;;53.05;28.17;;;;;;;;;;4999966;28;20100;-86
2021/11/11 03:44:53;;;;;;;66.22;27.95;;;;;;;;;;5006794;28;20045;-86
2021/11/11 03:47:19;;;;;;;56.10;27.42;;;;;;;;;;5001948;28;20038;-88
2021/11/11 03:49:47;;;;;;;62.08;30.35;;;;;;;;;;5029583;28;20100;-86
2021/11/11 03:52:13;;;;;;;62.15;29.27;;;;;;;;;;4999203;28;20500;-86
2021/11/11 03:54:41;;;;;;;68.35;30.92;;;;;;;;;;5015481;28;20042;-86
2021/11/11 03:57:08;;;;;;;67.05;31.17;;;;;;;;;;4999908;28;20042;-86
2021/11/11 03:59:36;;;;;;;65.05;29.83;;;;;;;;;;4999385;28;20045;-86
2021/11/11 04:02:02;;;;;;;61.70;29.08;;;;;;;;;;5016615;28;20048;-86
2021/11/11 04:04:28;;;;;;;66.47;30.50;;;;;;;;;;4999109;28;20045;-88
2021/11/11 04:06:54;;;;;;;61.67;29.05;;;;;;;;;;5002823;28;20049;-87
2021/11/11 04:09:21;;;;;;;60.05;28.98;;;;;;;;;;4999516;28;20080;-89
2021/11/11 04:11:48;;;;;;;61.63;31.15;;;;;;;;;;4999670;28;20056;-88
2021/11/11 04:14:14;;;;;;;64.45;30.48;;;;;;;;;;5017586;28;20057;-87
2021/11/11 04:16:42;;;;;;;79.05;32.80;;;;;;;;;;5014725;28;20045;-87
2021/11/11 04:19:08;;;;;;;64.43;31.02;;;;;;;;;;4999776;28;20074;-86
2021/11/11 04:21:34;;;;;;;68.68;30.90;;;;;;;;;;5014957;28;20046;-86
2021/11/11 04:24:01;;;;;;;67.63;30.23;;;;;;;;;;5015285;28;20513;-87
2021/11/11 04:26:33;;;;;;;69.60;32.05;;;;;;;;;;5015349;28;20096;-88
2021/11/11 04:29:02;;;;;;;60.83;30.40;;;;;;;;;;5011573;28;20037;-86
2021/11/11 04:31:32;;;;;;;61.33;29.92;;;;;;;;;;5014944;28;20049;-87
2021/11/11 04:34:05;;;;;;;65.80;32.33;;;;;;;;;;4998817;28;20057;-87
2021/11/11 04:42:08;;;;;;;60.40;31.08;;;;;;;;;;5014920;28;20053;-86
2021/11/11 04:47:35;;;;;;;65.00;33.58;;;;;;;;;;5015456;28;20497;-88
2021/11/11 05:01:19;;;;;;;61.97;31.20;;;;;;;;;;5001552;28;20045;-88
2021/11/11 05:03:49;;;;;;;64.55;31.92;;;;;;;;;;4994334;28;20297;-91
2021/11/11 05:06:16;;;;;;;59.15;28.13;;;;;;;;;;4994884;28;20041;-87
2021/11/11 05:08:42;;;;;;;64.88;32.60;;;;;;;;;;5003597;28;20045;-87
2021/11/11 05:11:09;;;;;;;56.13;28.52;;;;;;;;;;5005228;28;20042;-86
2021/11/11 05:13:36;;;;;;;62.03;32.20;;;;;;;;;;5014353;28;20037;-88
2021/11/11 05:16:02;;;;;;;61.97;30.40;;;;;;;;;;4996565;28;20549;-86
2021/11/11 05:18:28;;;;;;;57.00;29.70;;;;;;;;;;4996783;28;20132;-86
2021/11/11 05:20:55;;;;;;;57.05;30.88;;;;;;;;;;4996647;28;20050;-86
2021/11/11 05:23:22;;;;;;;57.28;32.47;;;;;;;;;;4997440;28;20056;-89
2021/11/11 05:25:49;;;;;;;51.85;29.90;;;;;;;;;;4977627;28;20064;-87
2021/11/11 05:28:15;;;;;;;63.20;30.95;;;;;;;;;;5010007;28;20088;-86
2021/11/11 05:30:41;;;;;;;57.40;30.92;;;;;;;;;;5000692;28;20556;-86
2021/11/11 05:33:07;;;;;;;60.55;31.45;;;;;;;;;;4993746;28;20045;-86
2021/11/11 05:35:34;;;;;;;58.55;32.45;;;;;;;;;;5002807;28;20041;-88
2021/11/11 05:38:00;;;;;;;52.03;29.88;;;;;;;;;;5009593;28;20041;-86
2021/11/11 05:40:26;;;;;;;52.67;30.27;;;;;;;;;;4994028;28;20450;-87
2021/11/11 05:42:52;;;;;;;55.90;31.77;;;;;;;;;;4978985;28;20046;-87
2021/11/11 05:45:19;;;;;;;52.95;31.02;;;;;;;;;;4990274;28;20536;-87
2021/11/11 05:47:45;;;;;;;55.75;30.30;;;;;;;;;;5006119;28;20546;-87
2021/11/11 05:50:13;;;;;;;52.78;30.48;;;;;;;;;;4994873;28;20399;-87
2021/11/11 05:52:39;;;;;;;63.28;33.33;;;;;;;;;;5007502;28;20057;-88
2021/11/11 05:55:07;;;;;;;61.17;32.50;;;;;;;;;;4991312;28;20409;-88
2021/11/11 05:57:33;;;;;;;60.17;33.13;;;;;;;;;;4996234;28;20128;-88
2021/11/11 05:59:59;;;;;;;66.82;35.78;;;;;;;;;;4993918;28;20117;-87
2021/11/11 06:02:28;;;;;;;69.45;35.40;;;;;;;;;;4996639;28;20625;-88
2021/11/11 06:04:54;;;;;;;56.13;33.22;;;;;;;;;;5000635;28;20055;-86
2021/11/11 06:07:20;;;;;;;67.22;35.78;;;;;;;;;;4996644;28;20139;-89
2021/11/11 06:09:47;;;;;;;63.38;35.10;;;;;;;;;;4986344;28;20077;-87
2021/11/11 06:12:13;;;;;;;73.55;36.58;;;;;;;;;;4978388;28;20614;-86
2021/11/11 06:14:39;;;;;;;59.33;33.72;;;;;;;;;;4978397;28;20081;-87
2021/11/11 06:17:06;;;;;;;71.97;38.25;;;;;;;;;;5020137;28;20124;-87
2021/11/11 06:19:37;;;;;;;72.30;37.05;;;;;;;;;;5011043;28;20052;-86
2021/11/11 06:22:03;;;;;;;72.80;37.95;;;;;;;;;;5010349;28;20052;-86
2021/11/11 06:24:29;;;;;;;66.97;37.00;;;;;;;;;;4999697;28;20046;-88
2021/11/11 06:26:57;;;;;;;80.88;41.85;;;;;;;;;;5011895;28;20115;-88
2021/11/11 06:29:23;;;;;;;69.50;38.20;;;;;;;;;;4998654;28;20190;-87
2021/11/11 06:31:49;;;;;;;65.70;37.85;;;;;;;;;;4999368;28;20385;-86
2021/11/11 06:34:15;;;;;;;77.20;41.45;;;;;;;;;;5004502;28;20107;-86
2021/11/11 06:36:41;;;;;;;72.30;39.65;;;;;;;;;;5010860;28;20273;-86
2021/11/11 06:39:07;;;;;;;73.47;41.30;;;;;;;;;;5019496;28;20041;-87
2021/11/11 06:41:34;;;;;;;65.97;37.78;;;;;;;;;;5023047;28;20523;-86
2021/11/11 06:44:00;;;;;;;81.00;42.50;;;;;;;;;;5032622;28;20056;-85
2021/11/11 06:46:26;;;;;;;71.85;40.38;;;;;;;;;;5018072;28;20128;-87
2021/11/11 06:48:53;;;;;;;72.13;39.45;;;;;;;;;;5006893;28;20127;-87
2021/11/11 06:51:19;;;;;;;65.65;38.13;;;;;;;;;;5011982;28;20454;-86
2021/11/11 06:53:45;;;;;;;71.88;41.30;;;;;;;;;;5007643;28;20426;-85
2021/11/11 06:56:11;;;;;;;69.72;39.22;;;;;;;;;;5028469;28;20045;-87
2021/11/11 06:58:38;;;;;;;76.45;42.60;;;;;;;;;;5000030;28;20504;-86
2021/11/11 07:01:05;;;;;;;74.90;41.30;;;;;;;;;;5000685;28;20382;-86
2021/11/11 07:03:32;;;;;;;89.82;43.33;;;;;;;;;;4999686;28;20053;-84
2021/11/11 07:05:59;;;;;;;84.97;45.25;;;;;;;;;;4999828;28;20055;-85
2021/11/11 07:08:26;;;;;;;77.88;41.25;;;;;;;;;;5011232;28;20049;-85
2021/11/11 07:10:53;;;;;;;84.40;42.92;;;;;;;;;;5026949;28;20049;-86
2021/11/11 07:13:20;;;;;;;80.72;43.78;;;;;;;;;;5000185;28;20549;-85
2021/11/11 07:15:46;;;;;;;77.85;42.90;;;;;;;;;;5016565;28;20084;-85
2021/11/11 07:18:13;;;;;;;78.70;43.60;;;;;;;;;;5017030;28;20041;-85
2021/11/11 07:20:43;;;;;;;76.75;42.97;;;;;;;;;;5016205;28;20405;-85
2021/11/11 07:23:10;;;;;;;85.45;44.88;;;;;;;;;;5033213;28;20056;-87
2021/11/11 07:25:36;;;;;;;81.15;42.60;;;;;;;;;;5016703;28;20044;-87
2021/11/11 07:28:02;;;;;;;82.88;43.33;;;;;;;;;;5019421;28;20076;-86
2021/11/11 07:30:29;;;;;;;85.72;44.72;;;;;;;;;;5017527;28;20119;-85
2021/11/11 07:32:55;;;;;;;94.63;48.38;;;;;;;;;;5016636;28;20489;-86
2021/11/11 07:35:21;;;;;;;82.40;44.28;;;;;;;;;;5018323;28;20053;-87
2021/11/11 07:37:49;;;;;;;86.18;47.13;;;;;;;;;;5033828;28;20195;-85
2021/11/11 07:40:17;;;;;;;89.45;45.40;;;;;;;;;;5000130;28;20080;-85
2021/11/11 07:42:44;;;;;;;93.47;47.20;;;;;;;;;;5015789;28;20508;-85
2021/11/11 07:45:10;;;;;;;90.35;46.55;;;;;;;;;;5016364;28;20042;-85
2021/11/11 07:47:36;;;;;;;96.85;49.15;;;;;;;;;;4999573;28;20121;-86
2021/11/11 07:50:04;;;;;;;79.35;43.08;;;;;;;;;;4999816;28;20045;-86
2021/11/11 07:52:31;;;;;;;96.30;46.70;;;;;;;;;;5015311;28;20057;-86
2021/11/11 07:54:58;;;;;;;102.57;49.80;;;;;;;;;;4999676;28;20646;-86
2021/11/11 07:57:28;;;;;;;101.85;49.20;;;;;;;;;;5015971;28;20048;-88
2021/11/11 07:59:55;;;;;;;83.13;42.22;;;;;;;;;;4999775;28;20050;-86
2021/11/11 08:02:22;;;;;;;92.10;45.35;;;;;;;;;;5000007;28;20133;-88
2021/11/11 08:04:48;;;;;;;73.47;39.58;;;;;;;;;;5012006;28;20083;-86
2021/11/11 08:07:17;;;;;;;83.60;43.60;;;;;;;;;;5000670;28;20045;-86
2021/11/11 08:09:44;;;;;;;88.05;45.55;;;;;;;;;;5015129;28;20052;-86
2021/11/11 08:12:10;;;;;;;94.88;47.78;;;;;;;;;;5015662;28;20067;-86
2021/11/11 08:14:37;;;;;;;103.55;49.03;;;;;;;;;;5015099;28;20053;-86
2021/11/11 08:17:03;;;;;;;86.90;43.10;;;;;;;;;;5015539;28;20038;-86
2021/11/11 08:19:29;;;;;;;96.10;48.60;;;;;;;;;;4999223;28;20057;-86
2021/11/11 08:21:56;;;;;;;71.35;38.42;;;;;;;;;;4999173;28;20057;-88
2021/11/11 08:24:22;;;;;;;85.70;42.42;;;;;;;;;;5015691;28;20056;-90
2021/11/11 08:26:48;;;;;;;92.50;45.70;;;;;;;;;;5015055;28;20052;-85
2021/11/11 08:29:14;;;;;;;78.18;41.08;;;;;;;;;;4999247;28;20053;-86
2021/11/11 08:31:40;;;;;;;93.93;46.38;;;;;;;;;;4998552;28;20046;-87
2021/11/11 08:34:06;;;;;;;87.07;43.63;;;;;;;;;;4999204;28;20176;-87
2021/11/11 08:36:32;;;;;;;96.68;47.92;;;;;;;;;;4998325;28;20128;-87
2021/11/11 08:38:59;;;;;;;92.60;45.97;;;;;;;;;;4997776;28;20049;-87
2021/11/11 08:41:26;;;;;;;91.70;46.97;;;;;;;;;;4998390;28;20053;-86
2021/11/11 08:43:52;;;;;;;86.80;46.97;;;;;;;;;;4998885;28;20049;-86
2021/11/11 08:46:19;;;;;;;90.95;46.60;;;;;;;;;;5019472;28;20103;-87
2021/11/11 08:48:45;;;;;;;101.00;46.22;;;;;;;;;;4998378;28;20041;-86
2021/11/11 08:51:11;;;;;;;86.82;46.53;;;;;;;;;;4998698;28;20166;-84
2021/11/11 08:53:37;;;;;;;87.07;45.10;;;;;;;;;;4997537;28;20441;-86
2021/11/11 08:56:03;;;;;;;84.57;43.85;;;;;;;;;;5014504;28;20092;-86
2021/11/11 08:58:31;;;;;;;91.35;47.17;;;;;;;;;;4998124;28;20053;-85
2021/11/11 09:01:01;;;;;;;103.72;51.83;;;;;;;;;;5026544;28;20504;-86
2021/11/11 09:03:27;;;;;;;99.10;47.38;;;;;;;;;;5032888;28;20041;-87
2021/11/11 09:05:53;;;;;;;105.57;51.20;;;;;;;;;;5022340;28;20124;-86
2021/11/11 09:08:19;;;;;;;100.38;47.88;;;;;;;;;;4998480;28;20056;-86
2021/11/11 09:10:46;;;;;;;85.60;43.97;;;;;;;;;;4998641;28;20441;-87
2021/11/11 09:13:12;;;;;;;77.18;41.10;;;;;;;;;;5014730;28;20124;-86
2021/11/11 09:15:39;;;;;;;98.90;45.63;;;;;;;;;;5014292;28;20042;-86
2021/11/11 09:18:07;;;;;;;93.78;47.03;;;;;;;;;;4998108;28;20110;-86
2021/11/11 09:20:34;;;;;;;101.35;47.40;;;;;;;;;;5013961;28;20057;-86
2021/11/11 09:23:01;;;;;;;89.05;44.85;;;;;;;;;;4998083;28;20132;-87
2021/11/11 09:25:30;;;;;;;82.32;42.63;;;;;;;;;;5014139;28;20049;-86
2021/11/11 09:27:56;;;;;;;74.95;38.50;;;;;;;;;;4997997;28;20041;-87
2021/11/11 09:30:24;;;;;;;93.72;43.50;;;;;;;;;;4998349;28;20053;-88
2021/11/11 09:32:50;;;;;;;97.25;45.85;;;;;;;;;;4997989;28;20049;-87
2021/11/11 09:35:17;;;;;;;92.00;43.35;;;;;;;;;;4997853;28;20187;-86
2021/11/11 09:37:43;;;;;;;75.05;36.30;;;;;;;;;;5012578;28;20103;-86
2021/11/11 09:40:11;;;;;;;102.57;45.47;;;;;;;;;;5013611;28;20559;-87
2021/11/11 09:42:38;;;;;;;72.28;38.15;;;;;;;;;;4997047;28;20477;-88
2021/11/11 09:45:05;;;;;;;79.40;40.30;;;;;;;;;;5006983;28;20044;-87
2021/11/11 09:47:32;;;;;;;63.20;34.35;;;;;;;;;;5033588;28;20123;-86
2021/11/11 09:49:58;;;;;;;78.32;41.38;;;;;;;;;;5033355;28;20049;-87
2021/11/11 09:52:25;;;;;;;71.32;37.58;;;;;;;;;;5033633;28;20061;-89
2021/11/11 10:00:24;;;;;;;86.35;42.65;;;;;;;;;;5016865;28;20056;-86
2021/11/11 10:02:51;;;;;;;67.22;35.92;;;;;;;;;;5013483;28;20053;-87
2021/11/11 10:05:17;;;;;;;72.10;37.92;;;;;;;;;;5003394;28;20107;-87
2021/11/11 10:07:43;;;;;;;74.68;38.90;;;;;;;;;;5013192;28;20049;-88
2021/11/11 10:10:09;;;;;;;75.43;39.47;;;;;;;;;;4996997;28;20107;-86
2021/11/11 10:12:36;;;;;;;68.00;36.97;;;;;;;;;;4996564;28;20053;-87
2021/11/11 10:15:12;;;;;;;60.55;31.95;;;;;;;;;;5013065;28;20054;-87
2021/11/11 10:17:43;;;;;;;73.40;39.05;;;;;;;;;;5029354;28;20107;-88
2021/11/11 10:20:10;;;;;;;65.78;36.17;;;;;;;;;;5029871;28;20049;-87
2021/11/11 10:22:38;;;;;;;66.15;36.85;;;;;;;;;;5046030;28;20046;-87
2021/11/11 10:25:08;;;;;;;61.25;33.90;;;;;;;;;;5019820;28;20092;-85
2021/11/11 10:27:38;;;;;;;57.63;32.67;;;;;;;;;;4996921;28;20057;-85
2021/11/11 10:30:08;;;;;;;64.57;35.55;;;;;;;;;;5013361;28;20057;-87
2021/11/11 10:32:37;;;;;;;65.78;37.35;;;;;;;;;;5012688;28;20362;-86
2021/11/11 10:35:10;;;;;;;61.67;36.17;;;;;;;;;;4997155;28;20046;-87
2021/11/11 10:37:41;;;;;;;60.83;34.50;;;;;;;;;;5013065;28;20045;-86
2021/11/11 10:40:12;;;;;;;60.20;35.28;;;;;;;;;;4977325;28;20041;-86
2021/11/11 10:42:39;;;;;;;58.10;33.67;;;;;;;;;;4976683;28;20394;-87
2021/11/11 10:45:08;;;;;;;61.20;35.25;;;;;;;;;;5003324;28;20045;-86
2021/11/11 10:47:35;;;;;;;64.15;35.20;;;;;;;;;;5012679;28;20058;-87
2021/11/11 10:50:04;;;;;;;59.72;34.13;;;;;;;;;;5013211;28;20064;-87
2021/11/11 10:52:32;;;;;;;60.38;34.75;;;;;;;;;;5012334;28;20061;-87
2021/11/11 10:55:01;;;;;;;51.75;32.97;;;;;;;;;;5013073;28;20041;-87
2021/11/11 10:57:31;;;;;;;55.75;31.98;;;;;;;;;;4999345;28;20042;-89
2021/11/11 11:00:06;;;;;;;50.42;30.27;;;;;;;;;;4993361;28;20050;-87
2021/11/11 11:02:48;;;;;;;49.90;31.10;;;;;;;;;;4993408;28;20562;-86
2021/11/11 11:05:14;;;;;;;58.03;33.72;;;;;;;;;;4995896;28;20147;-86
2021/11/11 11:07:40;;;;;;;49.17;29.42;;;;;;;;;;4996181;28;20520;-86
2021/11/11 11:10:07;;;;;;;62.25;34.53;;;;;;;;;;5012766;28;20046;-86
2021/11/11 11:12:34;;;;;;;58.55;33.85;;;;;;;;;;5012720;28;20081;-86
2021/11/11 11:15:00;;;;;;;64.28;35.45;;;;;;;;;;5013106;28;20555;-86
2021/11/11 11:17:26;;;;;;;59.63;32.42;;;;;;;;;;4996165;28;20045;-89
2021/11/11 11:20:12;;;;;;;58.50;33.88;;;;;;;;;;5012903;28;20060;-86
2021/11/11 11:22:38;;;;;;;59.30;32.67;;;;;;;;;;5012088;28;20052;-87
2021/11/11 11:25:05;;;;;;;56.67;32.33;;;;;;;;;;4996058;28;20069;-87
2021/11/11 11:27:35;;;;;;;58.85;34.22;;;;;;;;;;4996057;28;20049;-86
2021/11/11 11:30:16;;;;;;;57.72;33.53;;;;;;;;;;5012792;28;20049;-86
2021/11/11 11:32:43;;;;;;;53.30;31.45;;;;;;;;;;4996259;28;20481;-87
2021/11/11 11:35:11;;;;;;;50.58;30.20;;;;;;;;;;5012761;28;20441;-86
2021/11/11 11:37:37;;;;;;;59.65;34.20;;;;;;;;;;4995855;28;20056;-86
2021/11/11 11:40:23;;;;;;;46.05;26.88;;;;;;;;;;5011818;28;20445;-87
2021/11/11 11:42:54;;;;;;;54.55;31.60;;;;;;;;;;5012782;28;20045;-87
2021/11/11 11:45:23;;;;;;;53.75;31.80;;;;;;;;;;4999773;28;20619;-87
2021/11/11 11:47:54;;;;;;;50.28;29.65;;;;;;;;;;4999270;28;20052;-86
2021/11/11 11:50:24;;;;;;;55.55;33.30;;;;;;;;;;4999866;28;20048;-86
2021/11/11 11:52:55;;;;;;;44.08;27.90;;;;;;;;;;5006115;28;20059;-86
2021/11/11 11:55:33;;;;;;;47.20;30.30;;;;;;;;;;4973743;28;20420;-86
2021/11/11 12:39:54;;;;;;;43.45;27.10;;;;;;;;;;4993894;28;20053;-86
2021/11/11 12:42:21;;;;;;;;;;;;;;;;;;4979655;28;20060;-86
2021/11/11 12:45:07;;;;;;;40.45;25.30;;;;;;;;;;4978272;28;20133;-86
2021/11/11 12:47:36;;;;;;;39.15;24.25;;;;;;;;;;4978449;28;20478;-86
2021/11/11 12:50:21;;;;;;;36.35;23.13;;;;;;;;;;4979040;28;20046;-86
2021/11/11 12:53:11;;;;;;;35.72;23.67;;;;;;;;;;5020407;28;20053;-86
2021/11/11 12:55:37;;;;;;;36.97;23.63;;;;;;;;;;5013572;28;20052;-87
2021/11/11 12:58:05;;;;;;;33.28;21.83;;;;;;;;;;4998618;28;20540;-86
2021/11/11 13:00:33;;;;;;;37.30;23.13;;;;;;;;;;4997676;28;20481;-86
2021/11/11 13:03:00;;;;;;;33.88;23.42;;;;;;;;;;5014988;28;20056;-86
2021/11/11 13:05:46;;;;;;;30.20;19.95;;;;;;;;;;4998560;28;20041;-86
2021/11/11 13:08:13;;;;;;;28.00;20.00;;;;;;;;;;4998688;28;20500;-86
2021/11/11 13:10:52;;;;;;;30.58;20.63;;;;;;;;;;5014190;28;20099;-86
2021/11/11 13:13:36;;;;;;;33.08;21.75;;;;;;;;;;4998285;28;20045;-85
2021/11/11 13:16:14;;;;;;;27.85;19.15;;;;;;;;;;5014037;28;20041;-85
2021/11/11 13:18:41;;;;;;;29.35;19.33;;;;;;;;;;5030043;28;20512;-86
2021/11/11 13:21:10;;;;;;;27.83;20.17;;;;;;;;;;5030451;28;20055;-86
2021/11/11 13:23:53;;;;;;;29.45;18.77;;;;;;;;;;5032753;28;20051;-86
2021/11/11 16:00:16;;;;;;;;;;;;;;;;;;5016068;28;20045;-87
2021/11/11 16:25:00;;;;;;;62.33;38.58;;;;;;;;;;5015262;28;20054;-88
2021/11/11 16:27:29;;;;;;;65.93;38.50;;;;;;;;;;5007674;28;20407;-87
2021/11/11 16:30:06;;;;;;;67.20;39.42;;;;;;;;;;5033462;28;20044;-87
2021/11/11 16:32:33;;;;;;;67.75;37.92;;;;;;;;;;5034872;28;20378;-89
2021/11/11 16:34:59;;;;;;;73.60;39.65;;;;;;;;;;5019349;28;20041;-88
2021/11/11 16:37:26;;;;;;;63.88;37.83;;;;;;;;;;5015127;28;20077;-88
2021/11/11 16:39:52;;;;;;;67.35;38.67;;;;;;;;;;5013431;28;20041;-88
2021/11/11 16:42:18;;;;;;;69.68;39.97;;;;;;;;;;5015272;28;20481;-87
2021/11/11 16:44:45;;;;;;;65.93;38.35;;;;;;;;;;5018547;28;20447;-87
2021/11/11 16:47:11;;;;;;;68.30;39.03;;;;;;;;;;5023307;28;20068;-87
2021/11/11 16:49:38;;;;;;;66.22;39.58;;;;;;;;;;4998601;28;20041;-87
2021/11/11 16:52:05;;;;;;;58.40;36.58;;;;;;;;;;4995493;28;20065;-91
2021/11/11 16:54:31;;;;;;;66.20;38.42;;;;;;;;;;5014598;28;20267;-87
2021/11/11 16:56:57;;;;;;;65.32;39.33;;;;;;;;;;5010303;28;20037;-86
2021/11/11 16:59:23;;;;;;;60.45;37.30;;;;;;;;;;5009287;28;20061;-87
2021/11/11 17:01:49;;;;;;;74.65;41.20;;;;;;;;;;5023369;28;20045;-86
2021/11/11 17:04:15;;;;;;;70.55;38.95;;;;;;;;;;5012871;28;20052;-86
2021/11/11 17:06:41;;;;;;;71.82;41.97;;;;;;;;;;5033408;28;20068;-87
2021/11/11 17:09:08;;;;;;;78.43;41.60;;;;;;;;;;5000094;28;20144;-87
2021/11/11 17:11:34;;;;;;;69.65;41.13;;;;;;;;;;5001899;28;20108;-87
2021/11/11 17:14:01;;;;;;;65.75;37.80;;;;;;;;;;4998081;28;20057;-87
2021/11/11 17:16:28;;;;;;;65.25;39.28;;;;;;;;;;5000637;28;20253;-86
2021/11/11 17:18:56;;;;;;;62.45;38.53;;;;;;;;;;4997427;28;20067;-86
2021/11/11 17:21:24;;;;;;;68.57;41.10;;;;;;;;;;5014691;28;20045;-87
2021/11/11 17:24:07;;;;;;;68.95;41.75;;;;;;;;;;5011340;28;20056;-87
2021/11/11 17:26:56;;;;;;;71.38;43.40;;;;;;;;;;4998492;28;20124;-86
2021/11/11 17:29:23;;;;;;;72.57;42.97;;;;;;;;;;4994422;28;20108;-87
2021/11/11 17:31:50;;;;;;;67.30;40.28;;;;;;;;;;5008650;28;20053;-86
2021/11/11 17:34:17;;;;;;;69.03;42.08;;;;;;;;;;5022377;28;20041;-86
2021/11/11 17:36:43;;;;;;;78.68;45.90;;;;;;;;;;5016624;28;20041;-86
2021/11/11 17:39:10;;;;;;;70.30;42.10;;;;;;;;;;4999182;28;20096;-88
2021/11/11 17:41:37;;;;;;;67.70;41.95;;;;;;;;;;5013649;28;20034;-88
2021/11/11 17:44:07;;;;;;;76.88;45.95;;;;;;;;;;5014323;28;20049;-87
2021/11/11 17:46:36;;;;;;;83.32;46.10;;;;;;;;;;5014063;28;20053;-87
2021/11/11 17:49:02;;;;;;;79.72;45.00;;;;;;;;;;4997190;28;20096;-87
2021/11/11 17:54:33;;;;;;;76.25;42.80;;;;;;;;;;5009444;28;20061;-87
2021/11/11 17:57:00;;;;;;;76.45;41.30;;;;;;;;;;4984358;28;20824;-87
2021/11/11 17:59:28;;;;;;;68.88;40.05;;;;;;;;;;4977901;28;20050;-87
2021/11/11 18:01:54;;;;;;;68.32;39.72;;;;;;;;;;4990400;28;20163;-87
2021/11/11 18:04:21;;;;;;;72.90;39.92;;;;;;;;;;4987778;28;20046;-88
2021/11/11 18:06:51;;;;;;;72.80;40.33;;;;;;;;;;4978264;28;20050;-87
2021/11/11 18:09:24;;;;;;;68.32;40.00;;;;;;;;;;4977402;28;20054;-87
2021/11/11 18:11:53;;;;;;;70.45;42.10;;;;;;;;;;4978043;28;20090;-87
2021/11/11 18:14:22;;;;;;;71.03;41.65;;;;;;;;;;4989907;28;20101;-86
2021/11/11 18:16:51;;;;;;;74.10;40.67;;;;;;;;;;5023871;28;20050;-87
2021/11/11 18:19:17;;;;;;;66.15;38.53;;;;;;;;;;4976309;28;20058;-87
2021/11/11 18:21:45;;;;;;;73.70;40.55;;;;;;;;;;4978913;28;20050;-88
2021/11/11 18:24:11;;;;;;;71.40;39.85;;;;;;;;;;4988171;28;20046;-87
2021/11/11 18:26:37;;;;;;;69.55;38.38;;;;;;;;;;4994516;28;20057;-88
2021/11/11 18:31:42;;;;;;;67.22;39.67;;;;;;;;;;4994748;28;20045;-87